createdAt,value
2022-09-06T00:00:28.080Z,17.20
2022-09-06T00:03:49.938Z,17.10
2022-09-06T00:07:11.580Z,17.10
2022-09-06T00:10:33.879Z,17.00
2022-09-06T00:13:55.477Z,16.90
2022-09-06T00:17:18.439Z,16.80
2022-09-06T00:20:40.040Z,16.80
2022-09-06T00:24:01.848Z,16.70
2022-09-06T00:27:23.444Z,16.70
2022-09-06T00:30:45.129Z,16.60
2022-09-06T00:34:08.092Z,16.60
2022-09-06T00:37:29.707Z,16.60
2022-09-06T00:40:51.363Z,16.60
2022-09-06T00:44:12.969Z,16.60
2022-09-06T00:47:34.702Z,16.60
2022-09-06T00:51:00.230Z,16.50
2022-09-06T00:54:22.001Z,16.50
2022-09-06T00:57:43.739Z,16.50
2022-09-06T01:01:05.532Z,16.60
2022-09-06T01:04:27.756Z,16.50
2022-09-06T01:07:58.542Z,16.50
2022-09-06T01:11:26.611Z,16.40
2022-09-06T01:14:55.828Z,16.40
2022-09-06T01:18:23.622Z,16.40
2022-09-06T01:21:49.059Z,16.40
2022-09-06T01:25:18.309Z,16.40
2022-09-06T01:28:42.559Z,16.40
2022-09-06T01:32:08.746Z,16.30
2022-09-06T01:35:33.624Z,16.30
2022-09-06T01:38:55.220Z,16.30
2022-09-06T01:42:19.146Z,16.20
2022-09-06T01:45:46.246Z,16.30
2022-09-06T01:49:21.503Z,16.20
2022-09-06T01:52:47.663Z,16.20
2022-09-06T01:56:14.209Z,16.20
2022-09-06T01:59:49.883Z,16.20
2022-09-06T02:03:16.273Z,16.20
2022-09-06T02:06:40.693Z,16.10
2022-09-06T02:10:06.294Z,16.10
2022-09-06T02:13:30.383Z,16.10
2022-09-06T02:16:53.763Z,16.10
2022-09-06T02:20:18.881Z,16.10
2022-09-06T02:23:42.077Z,16.10
2022-09-06T02:27:03.918Z,16.10
2022-09-06T02:30:25.610Z,16.10
2022-09-06T02:33:47.751Z,16.00
2022-09-06T02:37:11.199Z,16.10
2022-09-06T02:40:32.800Z,16.10
2022-09-06T02:43:54.400Z,16.20
2022-09-06T02:47:17.305Z,16.40
2022-09-06T02:50:38.858Z,16.50
2022-09-06T02:54:01.793Z,16.60
2022-09-06T02:57:23.396Z,16.80
2022-09-06T03:00:44.959Z,16.90
2022-09-06T03:04:06.541Z,16.90
2022-09-06T03:07:28.140Z,17.10
2022-09-06T03:10:51.504Z,17.20
2022-09-06T03:14:13.104Z,17.20
2022-09-06T03:17:34.715Z,17.30
2022-09-06T03:20:56.600Z,17.30
2022-09-06T03:24:18.165Z,17.30
2022-09-06T03:27:41.080Z,17.40
2022-09-06T03:31:03.577Z,17.40
2022-09-06T03:34:25.170Z,17.40
2022-09-06T03:37:46.767Z,17.50
2022-09-06T03:41:08.479Z,17.50
2022-09-06T03:44:31.390Z,17.50
2022-09-06T03:47:52.992Z,17.60
2022-09-06T03:51:14.595Z,17.60
2022-09-06T03:54:36.212Z,17.50
2022-09-06T03:57:57.795Z,17.40
2022-09-06T04:01:20.820Z,17.20
2022-09-06T04:04:42.530Z,17.10
2022-09-06T04:08:04.128Z,16.90
2022-09-06T04:11:25.759Z,16.80
2022-09-06T04:14:47.361Z,16.80
2022-09-06T04:18:10.296Z,16.80
2022-09-06T04:21:31.904Z,16.90
2022-09-06T04:24:53.502Z,16.90
2022-09-06T04:28:15.539Z,16.90
2022-09-06T04:31:37.138Z,16.90
2022-09-06T04:35:00.127Z,16.90
2022-09-06T04:38:21.876Z,16.90
2022-09-06T04:41:43.519Z,16.90
2022-09-06T04:45:05.658Z,16.80
2022-09-06T04:48:27.342Z,16.80
2022-09-06T04:51:50.336Z,16.80
2022-09-06T04:55:11.941Z,16.70
2022-09-06T04:58:33.509Z,16.70
2022-09-06T05:01:55.174Z,16.70
2022-09-06T05:05:16.830Z,16.70
2022-09-06T05:08:40.359Z,16.70
2022-09-06T05:12:02.147Z,16.80
2022-09-06T05:15:23.907Z,16.80
2022-09-06T05:18:45.471Z,17.00
2022-09-06T05:22:07.068Z,17.00
2022-09-06T05:25:29.999Z,17.10
2022-09-06T05:28:51.604Z,17.10
2022-09-06T05:32:13.205Z,17.30
2022-09-06T05:35:34.985Z,17.30
2022-09-06T05:38:57.013Z,17.40
2022-09-06T05:42:19.944Z,17.40
2022-09-06T05:45:41.545Z,17.50
2022-09-06T05:49:03.155Z,17.50
2022-09-06T05:52:24.739Z,17.50
2022-09-06T05:55:46.306Z,17.50
2022-09-06T05:59:09.222Z,17.40
2022-09-06T06:02:30.863Z,17.50
2022-09-06T06:05:52.467Z,17.70
2022-09-06T06:09:14.322Z,17.80
2022-09-06T06:12:35.928Z,17.90
2022-09-06T06:15:58.841Z,18.00
2022-09-06T06:19:20.425Z,18.10
2022-09-06T06:22:41.993Z,18.20
2022-09-06T06:26:03.631Z,18.30
2022-09-06T06:29:25.238Z,18.50
2022-09-06T06:32:48.135Z,18.80
2022-09-06T06:36:18.983Z,19.20
2022-09-06T06:39:40.627Z,20.00
2022-09-06T06:43:02.226Z,21.50
2022-09-06T06:46:24.691Z,22.40
2022-09-06T06:49:47.616Z,23.10
2022-09-06T06:53:09.198Z,23.90
2022-09-06T06:56:31.981Z,25.10
2022-09-06T06:59:53.589Z,25.50
2022-09-06T07:03:15.229Z,25.20
2022-09-06T07:13:54.142Z,26.60
2022-09-06T07:17:15.724Z,26.70
2022-09-06T07:24:20.508Z,27.20
2022-09-06T07:31:07.242Z,26.70
2022-09-06T07:34:29.282Z,25.60
2022-09-06T07:37:54.908Z,24.90
2022-09-06T07:41:18.401Z,24.70
2022-09-06T07:44:39.988Z,25.20
2022-09-06T07:48:01.682Z,25.80
2022-09-06T07:51:23.347Z,27.20
2022-09-06T07:54:44.942Z,29.00
2022-09-06T07:58:07.836Z,30.10
2022-09-06T08:01:30.592Z,29.40
2022-09-06T08:04:52.245Z,29.00
2022-09-06T08:11:55.424Z,29.40
2022-09-06T08:15:18.368Z,30.30
2022-09-06T08:18:39.974Z,30.20
2022-09-06T08:22:01.551Z,29.70
2022-09-06T08:25:23.126Z,29.80
2022-09-06T08:28:44.773Z,29.60
2022-09-06T08:32:07.717Z,30.10
2022-09-06T08:35:29.302Z,30.30
2022-09-06T08:38:50.899Z,30.60
2022-09-06T08:42:12.491Z,31.00
2022-09-06T08:45:34.076Z,31.20
2022-09-06T08:48:57.004Z,32.10
2022-09-06T08:52:22.797Z,32.00
2022-09-06T08:55:46.450Z,31.40
2022-09-06T08:59:11.877Z,31.70
2022-09-06T09:02:41.195Z,31.90
2022-09-06T09:06:04.784Z,32.40
2022-09-06T09:09:28.947Z,33.00
2022-09-06T09:12:50.556Z,33.10
2022-09-06T09:16:12.266Z,33.20
2022-09-06T09:19:34.315Z,32.90
2022-09-06T09:22:57.285Z,32.70
2022-09-06T09:26:19.913Z,32.40
2022-09-06T09:33:37.926Z,30.80
2022-09-06T09:40:56.605Z,30.00
2022-09-06T09:44:19.151Z,29.40
2022-09-06T09:47:40.757Z,29.60
2022-09-06T09:51:23.912Z,29.70
2022-09-06T09:54:48.374Z,30.00
2022-09-06T09:58:19.493Z,29.50
2022-09-06T10:01:41.095Z,29.60
2022-09-06T10:05:04.166Z,30.40
2022-09-06T10:08:26.432Z,31.40
2022-09-06T10:11:49.936Z,31.00
2022-09-06T10:15:31.831Z,30.10
2022-09-06T10:18:53.444Z,29.70
2022-09-06T10:22:22.928Z,29.50
2022-09-06T10:25:47.726Z,28.80
2022-09-06T10:29:12.837Z,29.20
2022-09-06T10:32:40.448Z,29.60
2022-09-06T10:36:03.464Z,29.30
2022-09-06T10:39:29.445Z,28.50
2022-09-06T10:42:51.960Z,28.30
2022-09-06T10:46:15.065Z,28.70
2022-09-06T10:49:38.522Z,29.00
2022-09-06T10:53:03.380Z,28.80
2022-09-06T10:56:28.333Z,28.50
2022-09-06T10:59:52.166Z,28.00
2022-09-06T11:07:04.883Z,28.30
2022-09-06T11:10:27.722Z,28.40
2022-09-06T11:13:49.309Z,28.70
2022-09-06T11:17:13.735Z,28.90
2022-09-06T11:20:38.704Z,29.00
2022-09-06T11:24:06.935Z,28.90
2022-09-06T11:27:33.407Z,28.80
2022-09-06T11:30:56.761Z,28.50
2022-09-06T11:34:23.151Z,28.20
2022-09-06T11:37:44.966Z,28.20
2022-09-06T11:41:13.561Z,28.10
2022-09-06T11:44:59.104Z,27.70
2022-09-06T11:48:38.464Z,27.70
2022-09-06T11:52:00.386Z,27.60
2022-09-06T11:55:23.061Z,27.60
2022-09-06T11:58:49.664Z,27.60
2022-09-06T12:02:26.238Z,27.60
2022-09-06T12:06:06.407Z,27.80
2022-09-06T12:09:29.280Z,27.70
2022-09-06T12:12:50.884Z,28.00
2022-09-06T12:16:14.738Z,28.20
2022-09-06T12:19:44.090Z,28.20
2022-09-06T12:23:06.262Z,28.20
2022-09-06T12:26:49.800Z,28.20
2022-09-06T12:30:29.648Z,28.30
2022-09-06T12:33:52.642Z,28.50
2022-09-06T12:37:14.242Z,28.70
2022-09-06T12:40:38.401Z,28.80
2022-09-06T12:44:00.507Z,28.70
2022-09-06T12:47:24.154Z,28.80
2022-09-06T12:50:59.936Z,28.80
2022-09-06T12:54:22.997Z,29.00
2022-09-06T12:57:48.347Z,29.20
2022-09-06T13:01:11.668Z,29.30
2022-09-06T13:04:37.419Z,29.40
2022-09-06T13:08:03.195Z,29.50
2022-09-06T13:11:28.058Z,29.50
2022-09-06T13:14:52.044Z,29.40
2022-09-06T13:18:20.785Z,29.40
2022-09-06T13:21:43.629Z,29.40
2022-09-06T13:25:12.518Z,29.10
2022-09-06T13:28:34.429Z,28.80
2022-09-06T13:31:56.745Z,28.80
2022-09-06T13:35:22.305Z,28.80
2022-09-06T13:38:44.426Z,28.80
2022-09-06T13:42:08.334Z,28.50
2022-09-06T13:45:31.415Z,28.50
2022-09-06T13:48:53.439Z,28.50
2022-09-06T13:52:15.052Z,28.70
2022-09-06T13:55:36.775Z,28.50
2022-09-06T13:58:59.699Z,28.40
2022-09-06T14:02:21.434Z,28.40
2022-09-06T14:05:43.068Z,28.50
2022-09-06T14:09:08.508Z,28.50
2022-09-06T14:12:30.443Z,28.40
2022-09-06T14:15:53.442Z,28.40
2022-09-06T14:19:15.194Z,28.30
2022-09-06T14:22:36.790Z,28.30
2022-09-06T14:25:58.909Z,28.50
2022-09-06T14:29:20.588Z,28.30
2022-09-06T14:32:43.507Z,28.10
2022-09-06T14:36:06.449Z,27.80
2022-09-06T14:39:28.227Z,28.10
2022-09-06T14:42:50.668Z,28.30
2022-09-06T14:46:13.218Z,28.50
2022-09-06T14:49:36.196Z,28.60
2022-09-06T14:52:57.899Z,28.50
2022-09-06T14:56:19.626Z,28.50
2022-09-06T14:59:41.262Z,28.40
2022-09-06T15:03:03.126Z,28.20
2022-09-06T15:06:27.473Z,28.10
2022-09-06T15:09:49.193Z,27.90
2022-09-06T15:13:11.115Z,27.80
2022-09-06T15:16:37.178Z,27.70
2022-09-06T15:23:31.625Z,28.00
2022-09-06T15:26:54.005Z,28.00
2022-09-06T15:30:16.618Z,27.80
2022-09-06T15:33:38.887Z,27.60
2022-09-06T15:44:09.757Z,27.00
2022-09-06T15:51:04.304Z,26.60
2022-09-06T15:54:30.799Z,26.50
2022-09-06T15:57:52.833Z,26.50
2022-09-06T16:01:17.018Z,26.50
2022-09-06T16:08:41.182Z,26.30
2022-09-06T16:12:03.232Z,26.30
2022-09-06T16:15:24.886Z,26.40
2022-09-06T16:18:48.044Z,26.50
2022-09-06T16:22:09.644Z,26.60
2022-09-06T16:25:31.258Z,26.70
2022-09-06T16:28:53.905Z,26.70
2022-09-06T16:32:15.570Z,26.60
2022-09-06T16:35:39.699Z,26.40
2022-09-06T16:39:01.329Z,26.00
2022-09-06T16:42:24.122Z,25.90
2022-09-06T16:45:54.866Z,25.60
2022-09-06T16:49:17.117Z,25.40
2022-09-06T16:52:57.813Z,25.20
2022-09-06T16:56:29.203Z,25.00
2022-09-06T16:59:51.579Z,24.90
2022-09-06T17:03:16.695Z,24.80
2022-09-06T17:06:38.686Z,24.70
2022-09-06T17:10:02.781Z,24.50
2022-09-06T17:13:29.234Z,24.40
2022-09-06T17:16:51.444Z,24.30
2022-09-06T17:20:15.345Z,24.30
2022-09-06T17:23:37.726Z,24.10
2022-09-06T17:26:59.931Z,23.90
2022-09-06T17:30:23.302Z,23.70
2022-09-06T17:33:45.930Z,23.50
2022-09-06T17:37:07.882Z,23.30
2022-09-06T17:40:29.793Z,23.10
2022-09-06T17:51:13.507Z,22.60
2022-09-06T17:54:35.790Z,22.40
2022-09-06T17:58:00.607Z,22.30
2022-09-06T18:01:26.859Z,22.30
2022-09-06T18:17:16.834Z,22.10
2022-09-06T18:20:50.015Z,22.00
2022-09-06T18:24:11.819Z,21.90
2022-09-06T18:27:36.115Z,21.60
2022-09-06T18:46:54.645Z,21.10
2022-09-06T19:02:28.898Z,20.70
2022-09-06T19:05:50.808Z,20.70
2022-09-06T19:09:16.263Z,20.60
2022-09-06T19:20:26.990Z,20.40
2022-09-06T19:24:27.998Z,20.30
2022-09-06T19:29:16.045Z,20.30
2022-09-06T19:31:50.130Z,20.30
2022-09-06T19:36:10.453Z,20.20
2022-09-06T19:40:09.170Z,20.20
2022-09-06T19:43:34.869Z,20.20
2022-09-06T19:48:28.509Z,20.10
2022-09-06T19:51:14.164Z,20.00
2022-09-06T19:54:48.631Z,20.00
2022-09-06T20:11:46.720Z,19.90
2022-09-06T20:19:26.840Z,19.80
2022-09-06T20:23:20.102Z,19.80
2022-09-06T20:34:35.520Z,19.30
2022-09-06T20:38:04.882Z,19.30
2022-09-06T20:41:29.891Z,19.20
2022-09-06T20:49:15.316Z,19.20
2022-09-06T20:56:42.207Z,19.30
2022-09-06T21:15:59.060Z,19.80
2022-09-06T21:24:08.534Z,19.80
2022-09-06T21:27:08.524Z,19.90
2022-09-06T21:34:39.461Z,20.00
2022-09-06T21:42:09.512Z,19.90
2022-09-06T21:49:34.853Z,19.80
2022-09-06T21:52:56.656Z,19.70
2022-09-06T21:56:18.758Z,19.60
2022-09-06T21:59:40.502Z,19.60
2022-09-06T22:03:03.607Z,19.50
2022-09-06T22:06:31.115Z,19.50
2022-09-06T22:09:52.929Z,19.50
2022-09-06T22:13:15.125Z,19.40
2022-09-06T22:16:38.239Z,19.30
2022-09-06T22:20:01.560Z,19.20
2022-09-06T22:23:23.611Z,19.00
2022-09-06T22:26:45.344Z,18.90
2022-09-06T22:30:07.811Z,18.80
2022-09-06T22:33:29.550Z,18.70
2022-09-06T22:36:52.606Z,18.70
2022-09-06T22:40:14.573Z,18.70
2022-09-06T22:43:36.534Z,18.70
2022-09-06T22:46:58.545Z,18.70
2022-09-06T22:50:20.479Z,18.70
2022-09-06T22:53:43.855Z,18.70
2022-09-06T22:57:06.287Z,18.60
2022-09-06T23:00:28.482Z,18.50
2022-09-06T23:03:50.399Z,18.50
2022-09-06T23:07:12.347Z,18.40
2022-09-06T23:10:38.872Z,18.40
2022-09-06T23:14:01.097Z,18.40
2022-09-06T23:17:23.034Z,18.40
2022-09-06T23:20:45.098Z,18.60
2022-09-06T23:24:07.141Z,18.70
2022-09-06T23:27:30.836Z,18.70
2022-09-06T23:30:52.870Z,18.70
2022-09-06T23:34:15.267Z,18.70
2022-09-06T23:37:37.033Z,18.80
2022-09-06T23:40:59.040Z,18.70
2022-09-06T23:44:22.687Z,18.80
2022-09-06T23:47:44.614Z,18.90
2022-09-06T23:51:06.656Z,18.90
2022-09-06T23:54:28.712Z,18.90
2022-09-06T23:57:50.626Z,19.00
